Time;durP1;ratioP1;P1;durP2;ratioP2;P2;SDS_P1;SDS_P2;PMS_P1;PMS_P2;Temp;Humidity;BMP_temperature;BMP_pressure;BME280_temperature;BME280_humidity;BME280_pressure;Samples;Min_cycle;Max_cycle;Signal;HPM_P1;HPM_P2
2023/11/13 00:01:29;;;;;;;5.63;4.32;;;4.50;99.90;;;;;;5073249;28;20316;-63
2023/11/13 00:03:56;;;;;;;5.90;4.72;;;4.40;99.90;;;;;;5073699;28;20197;-62
2023/11/13 00:06:23;;;;;;;5.78;5.18;;;4.40;99.90;;;;;;5073740;28;20197;-62
2023/11/13 00:08:49;;;;;;;9.25;4.72;;;4.40;99.90;;;;;;5073839;28;20227;-62
2023/11/13 00:11:18;;;;;;;5.20;4.70;;;4.30;99.90;;;;;;5073827;28;20200;-62
2023/11/13 00:13:45;;;;;;;7.32;4.47;;;4.30;99.90;;;;;;5074067;28;20292;-63
2023/11/13 00:16:12;;;;;;;5.25;4.72;;;4.30;99.90;;;;;;5076492;28;20215;-62
2023/11/13 00:18:38;;;;;;;5.13;4.55;;;4.30;99.90;;;;;;5073872;28;20225;-62
2023/11/13 00:21:05;;;;;;;5.05;4.55;;;4.20;99.90;;;;;;5073591;28;20224;-62
2023/11/13 00:23:32;;;;;;;5.82;4.88;;;4.20;99.90;;;;;;5073341;28;20201;-60
2023/11/13 00:25:59;;;;;;;6.85;5.15;;;4.20;99.90;;;;;;5073548;28;20250;-62
2023/11/13 00:28:27;;;;;;;6.35;5.10;;;4.10;99.90;;;;;;5075765;28;20250;-62
2023/11/13 00:30:54;;;;;;;8.57;5.20;;;4.10;99.90;;;;;;5077171;28;20674;-62
2023/11/13 00:33:21;;;;;;;9.25;5.20;;;4.00;99.90;;;;;;5077438;28;20311;-62
2023/11/13 00:35:47;;;;;;;8.10;4.90;;;4.00;99.90;;;;;;5077260;28;20212;-61
2023/11/13 00:38:14;;;;;;;5.75;4.47;;;4.00;99.90;;;;;;5077040;28;20220;-62
2023/11/13 00:40:41;;;;;;;5.15;4.32;;;4.00;99.90;;;;;;5077157;28;20364;-62
2023/11/13 00:43:09;;;;;;;5.07;4.63;;;3.90;99.90;;;;;;5077376;28;20224;-62
2023/11/13 00:45:37;;;;;;;5.43;4.90;;;4.00;99.90;;;;;;5077371;28;20635;-62
2023/11/13 00:48:04;;;;;;;7.55;4.80;;;3.90;99.90;;;;;;5077013;28;20197;-62
2023/11/13 00:50:31;;;;;;;9.75;4.78;;;3.90;99.90;;;;;;5077104;28;20197;-62
2023/11/13 00:52:58;;;;;;;5.65;4.60;;;3.90;99.90;;;;;;5077368;28;20225;-62
2023/11/13 00:55:25;;;;;;;6.50;5.30;;;3.90;99.90;;;;;;5076744;28;20207;-62
2023/11/13 00:57:52;;;;;;;6.38;4.72;;;3.90;99.90;;;;;;5076975;28;20315;-61
2023/11/13 01:00:21;;;;;;;10.05;4.70;;;3.90;99.90;;;;;;5076587;28;20693;-61
2023/11/13 01:02:49;;;;;;;5.80;4.93;;;3.90;99.90;;;;;;5076209;28;20323;-62
2023/11/13 01:05:16;;;;;;;4.80;4.00;;;3.90;99.90;;;;;;5076921;28;20285;-62
2023/11/13 01:07:42;;;;;;;9.38;4.38;;;3.90;99.90;;;;;;5076782;28;20728;-62
2023/11/13 01:10:10;;;;;;;7.88;4.20;;;3.90;99.90;;;;;;5076311;28;20205;-62
2023/11/13 01:12:37;;;;;;;6.15;4.75;;;3.90;99.90;;;;;;5076988;28;20300;-61
2023/11/13 01:15:06;;;;;;;5.00;4.25;;;3.90;99.90;;;;;;5076466;28;20197;-62
2023/11/13 01:17:33;;;;;;;6.15;5.07;;;3.80;99.90;;;;;;5075769;28;20698;-62
2023/11/13 01:20:03;;;;;;;7.22;4.75;;;3.80;99.90;;;;;;5075905;28;20201;-62
2023/11/13 01:22:30;;;;;;;5.78;4.70;;;3.80;99.90;;;;;;5076041;28;20256;-61
2023/11/13 01:24:57;;;;;;;4.53;4.13;;;3.80;99.90;;;;;;5076153;28;20197;-61
2023/11/13 01:27:23;;;;;;;4.80;4.35;;;3.70;99.90;;;;;;5076192;28;20220;-61
2023/11/13 01:29:50;;;;;;;5.13;4.03;;;3.70;99.90;;;;;;5075771;28;20201;-61
2023/11/13 01:32:17;;;;;;;5.03;4.53;;;3.70;99.90;;;;;;5076033;28;20225;-61
2023/11/13 01:34:44;;;;;;;6.18;4.63;;;3.70;99.90;;;;;;5076099;28;20203;-62
2023/11/13 01:37:14;;;;;;;6.72;5.15;;;3.70;99.90;;;;;;5075635;28;20722;-61
2023/11/13 01:39:40;;;;;;;6.13;5.10;;;3.60;99.90;;;;;;5075359;28;20247;-61
2023/11/13 01:42:07;;;;;;;6.63;5.38;;;3.60;99.90;;;;;;5075675;28;20221;-61
2023/11/13 01:44:34;;;;;;;12.70;4.60;;;3.60;99.90;;;;;;5075982;28;20205;-62
2023/11/13 01:47:01;;;;;;;6.22;5.35;;;3.60;99.90;;;;;;5076064;28;20223;-61
2023/11/13 01:49:28;;;;;;;8.27;4.60;;;3.60;99.90;;;;;;5075719;28;20201;-61
2023/11/13 01:51:55;;;;;;;8.43;4.63;;;3.60;99.90;;;;;;5075060;28;20221;-62
2023/11/13 01:54:23;;;;;;;6.00;4.85;;;3.60;99.90;;;;;;5075249;28;20618;-61
2023/11/13 01:56:52;;;;;;;7.45;4.65;;;3.60;99.90;;;;;;5076033;28;20201;-62
2023/11/13 01:59:18;;;;;;;5.93;4.90;;;3.60;99.90;;;;;;5075429;28;20589;-62
2023/11/13 02:01:45;;;;;;;5.20;4.70;;;3.60;99.90;;;;;;5075340;28;20233;-62
2023/11/13 02:04:12;;;;;;;5.63;5.13;;;3.60;99.90;;;;;;5075650;28;20197;-62
2023/11/13 02:06:39;;;;;;;12.82;5.53;;;3.60;99.90;;;;;;5075426;28;20232;-62
2023/11/13 02:09:10;;;;;;;5.95;4.80;;;3.60;99.90;;;;;;5074821;28;20680;-61
2023/11/13 02:11:38;;;;;;;7.47;4.95;;;3.50;99.90;;;;;;5078234;28;20630;-62
2023/11/13 02:14:05;;;;;;;5.22;4.72;;;3.50;99.90;;;;;;5076084;28;20552;-62
2023/11/13 02:16:33;;;;;;;5.82;4.47;;;3.50;99.90;;;;;;5075524;28;20201;-62
2023/11/13 02:19:00;;;;;;;5.55;4.40;;;3.50;99.90;;;;;;5075671;28;20311;-62
2023/11/13 02:21:27;;;;;;;7.22;5.13;;;3.40;99.90;;;;;;5075218;28;20221;-61
2023/11/13 02:23:56;;;;;;;6.82;5.93;;;3.40;99.90;;;;;;5074694;28;20678;-62
2023/11/13 02:26:24;;;;;;;8.75;4.57;;;3.40;99.90;;;;;;5075086;28;20201;-61
2023/11/13 02:28:51;;;;;;;6.70;5.85;;;3.40;99.90;;;;;;5074779;28;20209;-62
2023/11/13 02:31:18;;;;;;;7.35;5.32;;;3.40;99.90;;;;;;5074885;28;20223;-62
2023/11/13 02:33:45;;;;;;;6.18;5.25;;;3.40;99.90;;;;;;5074954;28;20201;-62
2023/11/13 02:36:12;;;;;;;5.97;4.75;;;3.40;99.90;;;;;;5074965;28;20204;-62
2023/11/13 02:38:39;;;;;;;5.30;4.70;;;3.40;99.90;;;;;;5074205;28;20695;-62
2023/11/13 02:41:08;;;;;;;6.30;5.18;;;3.40;99.90;;;;;;5074234;28;20208;-62
2023/11/13 02:43:35;;;;;;;5.63;5.07;;;3.50;99.90;;;;;;5074640;28;20220;-61
2023/11/13 02:46:02;;;;;;;5.80;5.20;;;3.50;99.90;;;;;;5074391;28;20200;-62
2023/11/13 02:48:29;;;;;;;5.47;4.97;;;3.60;99.90;;;;;;5074365;28;20220;-61
2023/11/13 02:50:56;;;;;;;8.90;5.45;;;3.60;99.90;;;;;;5073238;28;20201;-62
2023/11/13 02:53:22;;;;;;;5.60;5.07;;;3.70;99.90;;;;;;5074421;28;20325;-61
2023/11/13 02:55:51;;;;;;;9.35;4.43;;;3.70;99.90;;;;;;5074440;28;20204;-61
2023/11/13 02:58:19;;;;;;;7.32;4.38;;;3.80;99.90;;;;;;5073721;28;20591;-62
2023/11/13 03:00:46;;;;;;;6.50;4.35;;;3.80;99.90;;;;;;5074029;28;20201;-62
2023/11/13 03:03:13;;;;;;;5.20;4.70;;;3.80;99.90;;;;;;5074175;28;20224;-62
2023/11/13 03:05:40;;;;;;;7.53;5.30;;;3.80;99.90;;;;;;5073393;28;20675;-62
2023/11/13 03:08:08;;;;;;;10.45;4.82;;;3.90;99.90;;;;;;5073846;28;20220;-62
2023/11/13 03:10:35;;;;;;;6.18;4.72;;;3.90;99.90;;;;;;5073821;28;20266;-61
2023/11/13 03:13:02;;;;;;;7.75;5.07;;;3.90;99.90;;;;;;5073942;28;20223;-61
2023/11/13 03:15:30;;;;;;;6.72;5.20;;;3.90;99.90;;;;;;5073512;28;20201;-61
2023/11/13 03:17:57;;;;;;;7.82;4.75;;;3.90;99.90;;;;;;5073458;28;20217;-62
2023/11/13 03:20:24;;;;;;;8.00;5.20;;;3.90;99.90;;;;;;5073392;28;20698;-62
2023/11/13 03:22:51;;;;;;;6.28;5.40;;;3.90;99.90;;;;;;5073342;28;20225;-62
2023/11/13 03:25:18;;;;;;;7.18;5.72;;;3.90;99.90;;;;;;5073454;28;20211;-62
2023/11/13 03:27:44;;;;;;;10.02;5.00;;;3.90;99.90;;;;;;5073589;28;20216;-62
2023/11/13 03:30:13;;;;;;;8.45;5.35;;;3.90;99.90;;;;;;5073464;28;20201;-62
2023/11/13 03:32:42;;;;;;;6.72;5.10;;;3.90;99.90;;;;;;5074674;28;20304;-62
2023/11/13 03:35:10;;;;;;;11.90;6.15;;;3.90;99.90;;;;;;5074439;28;20197;-62
2023/11/13 03:37:37;;;;;;;11.48;5.93;;;3.90;99.90;;;;;;5074244;28;20274;-62
2023/11/13 03:40:06;;;;;;;5.95;5.35;;;3.90;99.90;;;;;;5074258;28;20201;-61
2023/11/13 03:42:33;;;;;;;6.70;5.57;;;3.90;99.90;;;;;;5074206;28;20253;-62
2023/11/13 03:45:00;;;;;;;7.32;5.90;;;3.80;99.90;;;;;;5074224;28;20212;-61
2023/11/13 03:47:28;;;;;;;7.43;5.43;;;3.80;99.90;;;;;;5074150;28;20208;-62
2023/11/13 03:49:57;;;;;;;5.75;5.15;;;3.80;99.90;;;;;;5074202;28;20205;-61
2023/11/13 03:52:24;;;;;;;7.25;5.28;;;3.80;99.90;;;;;;5074163;28;20354;-62
2023/11/13 03:54:51;;;;;;;7.00;4.90;;;3.80;99.90;;;;;;5074884;28;20203;-61
2023/11/13 03:57:17;;;;;;;9.45;7.57;;;3.70;99.90;;;;;;5075303;28;20216;-61
2023/11/13 03:59:44;;;;;;;7.25;5.70;;;3.70;99.90;;;;;;5074896;28;20605;-61
2023/11/13 04:02:11;;;;;;;7.57;5.03;;;3.70;99.90;;;;;;5074004;28;20613;-61
2023/11/13 04:04:38;;;;;;;6.47;5.63;;;3.70;99.90;;;;;;5074444;28;20205;-61
2023/11/13 04:07:06;;;;;;;7.72;5.75;;;3.70;99.90;;;;;;5076863;28;20231;-61
2023/11/13 04:12:32;;;;;;;7.35;6.15;;;3.60;99.90;;;;;;5094381;28;21127;-62
2023/11/13 04:14:59;;;;;;;7.43;5.75;;;3.50;99.90;;;;;;5101500;28;20204;-62
2023/11/13 04:17:26;;;;;;;8.15;6.10;;;3.50;99.90;;;;;;5099312;28;20231;-61
2023/11/13 04:19:53;;;;;;;7.75;6.55;;;3.50;99.90;;;;;;5098553;28;20204;-62
2023/11/13 04:22:19;;;;;;;6.93;5.55;;;3.40;99.90;;;;;;5098706;28;20220;-62
2023/11/13 04:24:46;;;;;;;8.38;6.40;;;3.40;99.90;;;;;;5094700;28;20204;-62
2023/11/13 04:27:13;;;;;;;8.00;5.90;;;3.40;99.90;;;;;;5093698;28;20697;-62
2023/11/13 04:29:41;;;;;;;8.00;6.32;;;3.40;99.90;;;;;;5091431;28;20207;-62
2023/11/13 04:32:08;;;;;;;10.85;6.35;;;3.40;99.90;;;;;;5090462;28;20224;-62
2023/11/13 04:34:35;;;;;;;8.98;6.50;;;3.40;99.90;;;;;;5090166;28;20674;-62
2023/11/13 04:37:02;;;;;;;7.22;5.75;;;3.40;99.90;;;;;;5090808;28;20207;-62
2023/11/13 04:39:29;;;;;;;9.02;6.63;;;3.40;99.90;;;;;;5093555;28;20212;-61
2023/11/13 04:41:56;;;;;;;7.43;5.97;;;3.40;99.90;;;;;;5094129;28;20246;-62
2023/11/13 04:44:23;;;;;;;7.28;5.78;;;3.40;99.90;;;;;;5093383;28;20208;-62
2023/11/13 04:46:51;;;;;;;9.98;6.25;;;3.40;99.90;;;;;;5090320;28;20287;-61
2023/11/13 04:49:18;;;;;;;6.90;5.88;;;3.40;99.90;;;;;;5089931;28;20196;-62
2023/11/13 04:51:45;;;;;;;7.72;6.50;;;3.40;99.90;;;;;;5089746;28;20235;-62
2023/11/13 04:54:12;;;;;;;10.27;6.93;;;3.40;99.90;;;;;;5090450;28;20196;-62
2023/11/13 04:56:39;;;;;;;9.98;6.57;;;3.40;99.90;;;;;;5090032;28;20201;-62
2023/11/13 04:59:07;;;;;;;14.02;6.55;;;3.40;99.90;;;;;;5089793;28;20580;-62
2023/11/13 05:01:36;;;;;;;10.55;6.10;;;3.40;99.90;;;;;;5090268;28;20220;-62
2023/11/13 05:04:07;;;;;;;9.40;6.72;;;3.40;99.90;;;;;;5090525;28;20254;-62
2023/11/13 05:06:33;;;;;;;10.13;6.05;;;3.40;99.90;;;;;;5090471;28;20193;-61
2023/11/13 05:09:00;;;;;;;12.63;6.57;;;3.40;99.90;;;;;;5090152;28;20197;-61
2023/11/13 05:11:28;;;;;;;9.88;6.97;;;3.40;99.90;;;;;;5089363;28;20228;-62
2023/11/13 05:13:55;;;;;;;9.15;6.75;;;3.40;99.90;;;;;;5090163;28;20200;-61
2023/11/13 05:16:23;;;;;;;11.65;7.65;;;3.40;99.90;;;;;;5089914;28;20203;-61
2023/11/13 05:18:51;;;;;;;9.90;7.00;;;3.40;99.90;;;;;;5089654;28;20205;-61
2023/11/13 05:21:20;;;;;;;9.18;6.65;;;3.40;99.90;;;;;;5089677;28;20197;-61
2023/11/13 05:23:47;;;;;;;10.02;6.55;;;3.40;99.90;;;;;;5077023;28;20204;-61
2023/11/13 05:26:13;;;;;;;10.15;6.70;;;3.40;99.90;;;;;;5075604;28;20689;-61
2023/11/13 05:28:41;;;;;;;10.43;6.18;;;3.40;99.90;;;;;;5076179;28;20209;-61
2023/11/13 05:31:07;;;;;;;10.40;6.88;;;3.40;99.90;;;;;;5075642;28;20307;-62
2023/11/13 05:33:34;;;;;;;7.93;7.10;;;3.40;99.90;;;;;;5075905;28;20216;-62
2023/11/13 05:36:01;;;;;;;8.68;6.70;;;3.40;99.90;;;;;;5075915;28;20204;-61
2023/11/13 05:38:29;;;;;;;13.88;7.07;;;3.40;99.90;;;;;;5075944;28;20229;-60
2023/11/13 05:40:57;;;;;;;9.57;6.43;;;3.40;99.90;;;;;;5075269;28;20681;-61
2023/11/13 05:43:24;;;;;;;10.63;6.53;;;3.40;99.90;;;;;;5075389;28;20584;-61
2023/11/13 05:45:51;;;;;;;11.25;6.90;;;3.40;99.90;;;;;;5075288;28;20587;-62
2023/11/13 05:48:18;;;;;;;9.43;6.25;;;3.50;99.90;;;;;;5074889;28;20681;-61
2023/11/13 05:50:45;;;;;;;10.25;5.93;;;3.50;99.90;;;;;;5074855;28;20689;-61
2023/11/13 05:53:11;;;;;;;12.18;7.50;;;3.50;99.90;;;;;;5078852;28;20650;-60
2023/11/13 05:55:39;;;;;;;10.77;6.95;;;3.50;99.90;;;;;;5076498;28;20196;-62
2023/11/13 05:58:07;;;;;;;12.45;7.78;;;3.50;99.90;;;;;;5075540;28;20203;-61
2023/11/13 06:00:33;;;;;;;10.85;6.88;;;3.50;99.90;;;;;;5075492;28;20251;-61
2023/11/13 06:03:00;;;;;;;12.40;7.57;;;3.50;99.90;;;;;;5075570;28;20304;-62
2023/11/13 06:05:27;;;;;;;11.48;7.32;;;3.60;99.90;;;;;;5075163;28;20304;-61
2023/11/13 06:07:54;;;;;;;10.82;7.72;;;3.60;99.90;;;;;;5075178;28;20201;-62
2023/11/13 06:10:21;;;;;;;13.50;8.68;;;3.60;99.90;;;;;;5074918;28;20201;-62
2023/11/13 06:12:49;;;;;;;16.17;7.50;;;3.60;99.90;;;;;;5075160;28;20239;-61
2023/11/13 06:15:16;;;;;;;8.80;6.50;;;3.70;99.90;;;;;;5074700;28;20674;-58
2023/11/13 06:17:45;;;;;;;9.98;7.00;;;3.70;99.90;;;;;;5075376;28;20232;-62
2023/11/13 06:20:13;;;;;;;10.88;7.38;;;3.70;99.90;;;;;;5075175;28;20204;-64
2023/11/13 06:22:40;;;;;;;10.18;6.35;;;3.70;99.90;;;;;;5074876;28;20252;-61
2023/11/13 06:25:08;;;;;;;8.27;5.90;;;3.70;99.90;;;;;;5074793;28;20254;-62
2023/11/13 06:27:35;;;;;;;8.65;7.25;;;3.80;99.90;;;;;;5074976;28;20201;-62
2023/11/13 06:30:04;;;;;;;9.93;7.13;;;3.80;99.90;;;;;;5075153;28;20207;-61
2023/11/13 06:32:31;;;;;;;10.57;6.80;;;3.80;99.90;;;;;;5074842;28;20231;-61
2023/11/13 06:34:58;;;;;;;9.60;7.18;;;3.90;99.90;;;;;;5073873;28;20243;-62
2023/11/13 06:37:25;;;;;;;9.48;8.07;;;3.90;99.90;;;;;;5074639;28;20667;-61
2023/11/13 06:39:52;;;;;;;9.13;7.32;;;3.90;99.90;;;;;;5074349;28;20578;-62
2023/11/13 06:42:19;;;;;;;9.65;8.00;;;4.00;99.90;;;;;;5075022;28;20255;-62
2023/11/13 06:44:45;;;;;;;11.75;7.22;;;4.00;99.90;;;;;;5074923;28;20197;-62
2023/11/13 06:47:13;;;;;;;10.98;8.20;;;4.00;99.90;;;;;;5075131;28;20204;-62
2023/11/13 06:49:40;;;;;;;9.23;7.90;;;4.00;99.90;;;;;;5075736;28;20781;-62
2023/11/13 06:52:08;;;;;;;13.82;7.93;;;4.00;99.90;;;;;;5074372;28;20721;-62
2023/11/13 06:54:35;;;;;;;12.38;7.30;;;4.10;99.90;;;;;;5074283;28;20568;-62
2023/11/13 06:57:02;;;;;;;11.70;8.32;;;4.10;99.90;;;;;;5074441;28;20201;-61
2023/11/13 06:59:29;;;;;;;9.80;7.43;;;4.10;99.90;;;;;;5074481;28;20206;-62
2023/11/13 07:01:56;;;;;;;8.75;7.53;;;4.10;99.90;;;;;;5074142;28;20304;-60
2023/11/13 07:04:24;;;;;;;10.23;7.70;;;4.10;99.90;;;;;;5073956;28;20341;-60
2023/11/13 07:06:52;;;;;;;14.45;8.23;;;4.10;99.90;;;;;;5074168;28;20200;-62
2023/11/13 07:09:18;;;;;;;10.65;7.85;;;4.10;99.90;;;;;;5073906;28;20215;-62
2023/11/13 07:11:47;;;;;;;11.60;7.72;;;4.10;99.90;;;;;;5073536;28;20236;-61
2023/11/13 07:14:15;;;;;;;11.13;8.02;;;4.20;99.90;;;;;;5075151;28;20209;-62
2023/11/13 07:16:42;;;;;;;11.45;8.10;;;4.20;99.90;;;;;;5074719;28;20201;-62
2023/11/13 07:19:10;;;;;;;10.68;6.72;;;4.30;99.90;;;;;;5073927;28;20207;-62
2023/11/13 07:21:38;;;;;;;12.23;8.20;;;4.30;99.90;;;;;;5073826;28;20216;-62
2023/11/13 07:24:06;;;;;;;9.90;7.45;;;4.30;99.90;;;;;;5073960;28;20197;-61
2023/11/13 07:26:33;;;;;;;11.57;7.55;;;4.30;99.90;;;;;;5073483;28;20212;-63
2023/11/13 07:29:00;;;;;;;9.23;7.57;;;4.40;99.90;;;;;;5073654;28;20201;-62
2023/11/13 07:31:27;;;;;;;13.50;8.30;;;4.40;99.90;;;;;;5073504;28;20233;-60
2023/11/13 07:33:54;;;;;;;12.35;8.93;;;4.50;99.90;;;;;;5073882;28;20212;-61
2023/11/13 07:36:21;;;;;;;11.20;8.32;;;4.50;99.90;;;;;;5073439;28;20693;-61
2023/11/13 07:38:49;;;;;;;9.55;7.57;;;4.60;99.90;;;;;;5073734;28;20631;-61
2023/11/13 07:41:16;;;;;;;14.20;8.65;;;4.60;99.90;;;;;;5073794;28;20197;-62
2023/11/13 07:43:44;;;;;;;9.95;8.00;;;4.60;99.90;;;;;;5074469;28;20208;-62
2023/11/13 07:46:12;;;;;;;16.15;8.43;;;4.70;99.90;;;;;;5079568;28;20208;-61
2023/11/13 07:48:40;;;;;;;11.55;9.18;;;4.80;99.90;;;;;;5073688;28;20200;-63
2023/11/13 07:51:07;;;;;;;12.15;8.95;;;4.90;99.90;;;;;;5073305;28;20292;-61
2023/11/13 07:53:36;;;;;;;12.55;8.98;;;5.00;99.90;;;;;;5073256;28;20710;-62
2023/11/13 07:56:05;;;;;;;15.57;9.38;;;5.10;99.90;;;;;;5073252;28;20201;-63
2023/11/13 07:58:32;;;;;;;16.08;10.05;;;5.10;99.90;;;;;;5070267;28;20200;-62
2023/11/13 08:00:58;;;;;;;15.18;10.50;;;5.20;99.90;;;;;;5070787;28;20209;-61
2023/11/13 08:03:26;;;;;;;16.33;9.90;;;5.30;99.90;;;;;;5068472;28;20214;-61
2023/11/13 08:05:53;;;;;;;12.30;9.50;;;5.30;99.90;;;;;;5052846;28;20205;-62
2023/11/13 08:08:20;;;;;;;12.38;9.15;;;5.40;99.90;;;;;;5052722;28;20687;-63
2023/11/13 08:10:47;;;;;;;11.18;8.70;;;5.50;99.90;;;;;;5059627;28;20212;-62
2023/11/13 08:13:18;;;;;;;13.20;9.32;;;5.60;99.90;;;;;;5052972;28;20218;-62
2023/11/13 08:15:45;;;;;;;12.10;9.02;;;5.60;99.90;;;;;;5058117;28;20198;-62
2023/11/13 08:18:14;;;;;;;12.35;9.60;;;5.70;99.90;;;;;;5059926;28;20683;-61
2023/11/13 08:20:42;;;;;;;15.63;9.73;;;5.80;99.90;;;;;;5052548;28;20233;-62
2023/11/13 08:23:11;;;;;;;13.18;10.18;;;5.90;99.90;;;;;;5070714;28;20221;-61
2023/11/13 08:25:38;;;;;;;12.32;9.27;;;6.00;99.90;;;;;;5072641;28;20594;-60
2023/11/13 08:28:05;;;;;;;13.52;9.35;;;6.10;99.90;;;;;;5072188;28;20216;-62
2023/11/13 08:30:33;;;;;;;10.02;8.55;;;6.20;99.90;;;;;;5058761;28;20682;-61
2023/11/13 08:32:59;;;;;;;13.05;9.38;;;6.30;99.90;;;;;;5068585;28;20224;-63
2023/11/13 08:35:26;;;;;;;13.38;8.65;;;6.30;99.90;;;;;;5055762;28;20307;-60
2023/11/13 08:37:53;;;;;;;11.20;9.15;;;6.40;99.90;;;;;;5052619;28;20206;-61
2023/11/13 08:40:23;;;;;;;15.32;9.48;;;6.40;99.90;;;;;;5052852;28;20228;-62
2023/11/13 08:42:50;;;;;;;10.45;8.82;;;6.50;99.90;;;;;;5065746;28;20306;-62
2023/11/13 08:45:17;;;;;;;13.23;10.32;;;6.60;99.90;;;;;;5072764;28;20201;-61
2023/11/13 08:47:47;;;;;;;11.60;9.10;;;6.70;99.90;;;;;;5072609;28;20693;-62
2023/11/13 08:50:14;;;;;;;13.07;9.60;;;6.70;99.90;;;;;;5055261;28;20668;-63
2023/11/13 08:52:41;;;;;;;12.48;9.13;;;6.80;99.90;;;;;;5055417;28;20218;-61
2023/11/13 08:55:11;;;;;;;12.20;8.73;;;6.90;99.90;;;;;;5052668;28;20204;-61
2023/11/13 08:57:41;;;;;;;10.93;8.93;;;7.00;99.90;;;;;;5067950;28;20254;-61
2023/11/13 09:00:09;;;;;;;13.02;9.48;;;7.00;99.90;;;;;;5076128;28;20201;-61
2023/11/13 09:02:36;;;;;;;15.35;10.95;;;7.10;99.90;;;;;;5076040;28;20221;-62
2023/11/13 09:05:05;;;;;;;14.30;9.73;;;7.10;99.90;;;;;;5060866;28;20200;-63
2023/11/13 09:07:32;;;;;;;13.73;9.75;;;7.20;99.90;;;;;;5057846;28;20197;-64
2023/11/13 09:10:08;;;;;;;13.20;9.73;;;7.20;99.90;;;;;;5072948;28;20532;-63
2023/11/13 09:12:37;;;;;;;13.45;9.35;;;7.30;99.90;;;;;;5059947;28;20683;-61
2023/11/13 09:15:11;;;;;;;12.65;9.15;;;7.30;99.90;;;;;;5057959;28;20719;-62
2023/11/13 09:17:41;;;;;;;11.48;8.75;;;7.40;99.90;;;;;;5061511;28;20204;-62
2023/11/13 09:20:11;;;;;;;12.93;9.70;;;7.40;99.90;;;;;;5056156;28;20640;-62
2023/11/13 09:22:39;;;;;;;13.98;8.23;;;7.50;99.90;;;;;;5071936;28;20304;-61
2023/11/13 09:25:07;;;;;;;11.13;8.75;;;7.60;99.90;;;;;;5075819;28;20649;-62
2023/11/13 09:27:34;;;;;;;16.73;8.73;;;7.70;99.90;;;;;;5076248;28;20576;-62
2023/11/13 09:30:04;;;;;;;10.65;8.38;;;7.70;99.90;;;;;;5067785;28;20201;-61
2023/11/13 09:32:31;;;;;;;11.90;8.40;;;7.80;99.90;;;;;;5055917;28;20236;-61
2023/11/13 09:34:59;;;;;;;10.65;8.60;;;7.80;99.90;;;;;;5056610;28;20206;-63
2023/11/13 09:37:27;;;;;;;9.65;8.25;;;7.80;99.90;;;;;;5056210;28;20248;-63
2023/11/13 09:39:54;;;;;;;11.55;7.95;;;7.70;99.90;;;;;;5066922;28;20200;-62
2023/11/13 09:42:20;;;;;;;11.48;8.45;;;7.80;99.90;;;;;;5080462;28;20221;-63
2023/11/13 09:44:49;;;;;;;10.70;7.93;;;7.80;99.90;;;;;;5075276;28;20321;-63
2023/11/13 09:47:17;;;;;;;11.32;8.32;;;7.90;99.90;;;;;;5075488;28;20443;-63
2023/11/13 09:49:55;;;;;;;11.77;7.60;;;8.10;99.90;;;;;;5069730;28;20608;-63
2023/11/13 09:52:27;;;;;;;9.43;8.02;;;8.20;99.90;;;;;;5055395;28;20229;-63
2023/11/13 09:54:55;;;;;;;9.52;8.23;;;8.40;99.90;;;;;;5061426;28;20643;-62
2023/11/13 09:57:23;;;;;;;10.60;7.35;;;8.50;99.90;;;;;;5075848;28;20208;-62
2023/11/13 09:59:52;;;;;;;10.85;7.57;;;8.50;99.90;;;;;;5070146;28;20194;-61
2023/11/13 10:02:20;;;;;;;7.55;6.38;;;8.60;99.90;;;;;;5055693;28;20218;-62
2023/11/13 10:04:47;;;;;;;10.30;6.80;;;8.60;99.90;;;;;;5065791;28;20193;-61
2023/11/13 10:07:16;;;;;;;9.40;7.25;;;8.60;99.90;;;;;;5064286;28;20193;-61
2023/11/13 10:09:59;;;;;;;11.10;7.22;;;8.60;99.90;;;;;;5055413;28;20206;-63
2023/11/13 10:12:28;;;;;;;9.05;7.72;;;8.60;99.90;;;;;;5054983;28;20235;-62
2023/11/13 10:15:02;;;;;;;9.27;7.30;;;8.60;99.90;;;;;;5055119;28;20210;-62
2023/11/13 10:17:42;;;;;;;8.00;7.05;;;8.60;99.90;;;;;;5068254;28;20280;-63
2023/11/13 10:20:10;;;;;;;10.15;7.70;;;8.60;99.90;;;;;;5075781;28;20604;-63
2023/11/13 10:22:37;;;;;;;11.80;8.25;;;8.50;99.90;;;;;;5075529;28;20228;-63
2023/11/13 10:25:05;;;;;;;12.73;7.80;;;8.40;99.90;;;;;;5068705;28;20190;-62
2023/11/13 10:27:33;;;;;;;9.00;7.93;;;8.20;99.90;;;;;;5056309;28;20227;-62
2023/11/13 10:30:04;;;;;;;7.65;6.93;;;8.10;99.90;;;;;;5058073;28;20202;-62
2023/11/13 10:32:31;;;;;;;8.90;7.00;;;8.00;99.90;;;;;;5057028;28;20232;-62
2023/11/13 10:34:58;;;;;;;10.13;8.23;;;7.90;99.90;;;;;;5077127;28;20577;-62
2023/11/13 10:37:25;;;;;;;12.77;9.07;;;7.80;99.90;;;;;;5076239;28;20212;-61
2023/11/13 10:39:52;;;;;;;11.43;8.55;;;7.70;99.90;;;;;;5064485;28;20256;-63
2023/11/13 10:42:23;;;;;;;11.90;8.40;;;7.70;99.90;;;;;;5055031;28;20221;-62
2023/11/13 10:44:52;;;;;;;9.07;7.60;;;7.70;99.90;;;;;;5055283;28;20186;-62
2023/11/13 10:47:22;;;;;;;11.73;9.18;;;7.70;99.90;;;;;;5054628;28;20251;-62
2023/11/13 10:49:50;;;;;;;10.43;8.38;;;7.60;99.90;;;;;;5068982;28;20208;-63
2023/11/13 10:52:18;;;;;;;11.05;8.27;;;7.60;99.90;;;;;;5074997;28;20587;-61
2023/11/13 10:54:48;;;;;;;9.85;8.07;;;7.60;99.90;;;;;;5074384;28;20713;-61
2023/11/13 10:57:16;;;;;;;9.98;8.02;;;7.60;99.90;;;;;;5075739;28;20197;-62
2023/11/13 10:59:46;;;;;;;10.05;7.20;;;7.60;99.90;;;;;;5061822;28;20225;-63
2023/11/13 11:02:24;;;;;;;10.95;8.80;;;7.50;99.90;;;;;;5069611;28;20221;-62
2023/11/13 11:04:54;;;;;;;11.23;8.40;;;7.50;99.90;;;;;;5068242;28;20186;-64
2023/11/13 11:07:25;;;;;;;11.15;8.80;;;7.50;99.90;;;;;;5054900;28;20201;-63
2023/11/13 11:09:56;;;;;;;12.38;7.93;;;7.50;99.90;;;;;;5054438;28;20290;-61
2023/11/13 11:12:24;;;;;;;11.75;9.23;;;7.50;99.90;;;;;;5056416;28;20337;-62
2023/11/13 11:15:01;;;;;;;9.52;7.97;;;7.50;99.90;;;;;;5054962;28;20292;-62
2023/11/13 11:17:34;;;;;;;10.43;7.53;;;7.50;99.90;;;;;;5054237;28;20189;-62
2023/11/13 11:20:07;;;;;;;11.13;8.52;;;7.50;99.90;;;;;;5053978;28;20193;-62
2023/11/13 11:22:39;;;;;;;8.70;7.80;;;7.50;99.90;;;;;;5054186;28;20214;-63
2023/11/13 11:25:33;;;;;;;11.15;8.43;;;7.60;99.90;;;;;;5054196;28;20576;-62
2023/11/13 11:28:02;;;;;;;9.68;8.68;;;7.60;99.90;;;;;;5054238;28;20636;-64
2023/11/13 11:30:35;;;;;;;10.82;8.30;;;7.60;99.90;;;;;;5058002;28;20738;-63
2023/11/13 11:33:05;;;;;;;11.55;8.52;;;7.60;99.90;;;;;;5056778;28;20641;-62
2023/11/13 11:35:37;;;;;;;12.48;7.90;;;7.60;99.90;;;;;;5057902;28;20217;-62
2023/11/13 11:38:18;;;;;;;9.38;8.02;;;7.60;99.90;;;;;;5055279;28;20223;-63
2023/11/13 11:40:45;;;;;;;8.73;7.85;;;7.60;99.90;;;;;;5056499;28;20220;-62
2023/11/13 11:43:15;;;;;;;10.10;7.70;;;7.60;99.90;;;;;;5064524;28;20308;-63
2023/11/13 11:45:47;;;;;;;11.68;8.32;;;7.50;99.90;;;;;;5059939;28;20626;-63
2023/11/13 11:48:18;;;;;;;9.68;8.18;;;7.50;99.90;;;;;;5055616;28;20240;-62
2023/11/13 11:50:45;;;;;;;10.27;8.02;;;7.50;99.90;;;;;;5055241;28;20277;-62
2023/11/13 11:53:16;;;;;;;10.13;7.88;;;7.50;99.90;;;;;;5059013;28;20230;-64
2023/11/13 11:55:43;;;;;;;9.40;8.40;;;7.50;99.90;;;;;;5056884;28;20186;-63
2023/11/13 11:58:12;;;;;;;10.65;9.40;;;7.50;99.90;;;;;;5055385;28;20201;-62
2023/11/13 12:00:39;;;;;;;10.70;9.27;;;7.50;99.90;;;;;;5055109;28;20208;-63
2023/11/13 12:03:07;;;;;;;9.82;7.82;;;7.60;99.90;;;;;;5055746;28;20262;-63
2023/11/13 12:05:36;;;;;;;9.77;7.82;;;7.60;99.90;;;;;;5054250;28;20209;-63
2023/11/13 12:08:06;;;;;;;9.60;7.00;;;7.60;99.90;;;;;;5053980;28;20229;-63
2023/11/13 12:10:34;;;;;;;8.32;7.53;;;7.70;99.90;;;;;;5054626;28;20213;-64
2023/11/13 12:13:02;;;;;;;9.95;8.10;;;7.70;99.90;;;;;;5053979;28;20301;-63
2023/11/13 12:15:29;;;;;;;11.00;7.63;;;7.70;99.90;;;;;;5055154;28;20665;-63
2023/11/13 12:17:56;;;;;;;9.23;7.28;;;7.70;99.90;;;;;;5054320;28;20529;-63
2023/11/13 12:20:26;;;;;;;8.68;6.60;;;7.70;99.90;;;;;;5054543;28;20206;-64
2023/11/13 12:22:55;;;;;;;10.00;8.05;;;7.70;99.90;;;;;;5053891;28;20225;-64
2023/11/13 12:25:22;;;;;;;12.85;7.90;;;7.80;99.90;;;;;;5054113;28;20202;-63
2023/11/13 12:27:49;;;;;;;8.65;7.47;;;7.90;99.90;;;;;;5054233;28;20296;-63
2023/11/13 12:30:16;;;;;;;8.80;7.80;;;7.90;99.90;;;;;;5053458;28;20622;-64
2023/11/13 12:32:44;;;;;;;9.40;6.70;;;8.00;99.90;;;;;;5054988;28;20221;-64
2023/11/13 12:35:12;;;;;;;9.55;6.55;;;8.10;99.90;;;;;;5058024;28;20205;-63
2023/11/13 12:37:41;;;;;;;7.60;6.80;;;8.20;99.90;;;;;;5058602;28;20208;-63
2023/11/13 12:40:11;;;;;;;6.40;5.75;;;8.30;99.90;;;;;;5058362;28;20201;-62
2023/11/13 12:42:39;;;;;;;6.93;6.15;;;8.40;99.90;;;;;;5057964;28;20710;-64
2023/11/13 12:45:11;;;;;;;8.05;5.97;;;8.50;99.90;;;;;;5057719;28;20606;-62
2023/11/13 12:47:39;;;;;;;7.55;5.47;;;8.60;99.90;;;;;;5057570;28;20186;-63
2023/11/13 12:50:07;;;;;;;7.13;5.60;;;8.60;99.90;;;;;;5056940;28;20217;-63
2023/11/13 12:52:37;;;;;;;7.25;5.07;;;8.60;99.90;;;;;;5056852;28;20279;-63
2023/11/13 12:55:04;;;;;;;6.18;5.20;;;8.60;99.90;;;;;;5056625;28;20604;-64
2023/11/13 12:57:37;;;;;;;5.57;5.03;;;8.60;99.90;;;;;;5057045;28;20280;-64
2023/11/13 13:00:15;;;;;;;7.72;5.53;;;8.60;99.90;;;;;;5057215;28;20426;-63